Time;durP1;ratioP1;P1;durP2;ratioP2;P2;SDS_P1;SDS_P2;PMS_P1;PMS_P2;Temp;Humidity;BMP_temperature;BMP_pressure;BME280_temperature;BME280_humidity;BME280_pressure;Samples;Min_cycle;Max_cycle;Signal;HPM_P1;HPM_P2
2023/08/09 00:01:04;;;;;;;4.60;1.67;;;14.20;99.90;;;;;;4179536;28;20218;-75
2023/08/09 00:03:09;;;;;;;4.57;1.70;;;14.20;99.90;;;;;;4175391;28;20308;-76
2023/08/09 00:05:12;;;;;;;3.63;1.70;;;14.20;99.90;;;;;;4178630;28;20701;-77
2023/08/09 00:07:16;;;;;;;6.87;2.10;;;14.20;99.90;;;;;;4174388;28;20321;-76
2023/08/09 00:09:21;;;;;;;5.60;1.80;;;14.20;99.90;;;;;;4180685;28;20230;-75
2023/08/09 00:11:28;;;;;;;2.93;1.60;;;14.20;99.90;;;;;;4175748;28;20221;-75
2023/08/09 00:13:30;;;;;;;3.87;1.73;;;14.20;99.90;;;;;;4171171;28;20297;-75
2023/08/09 00:15:32;;;;;;;6.53;1.80;;;14.20;99.90;;;;;;4177381;28;20201;-75
2023/08/09 00:17:34;;;;;;;4.27;1.50;;;14.20;99.90;;;;;;4176371;28;20279;-75
2023/08/09 00:19:36;;;;;;;3.93;1.80;;;14.20;99.90;;;;;;4177820;28;20212;-75
2023/08/09 00:21:39;;;;;;;3.43;1.83;;;14.20;99.90;;;;;;4180415;28;20247;-76
2023/08/09 00:23:41;;;;;;;4.73;1.80;;;14.20;99.90;;;;;;4184099;28;20297;-75
2023/08/09 00:25:43;;;;;;;3.70;1.80;;;14.20;99.90;;;;;;4173757;28;20230;-75
2023/08/09 00:27:45;;;;;;;4.27;1.70;;;14.20;99.90;;;;;;4174694;28;20236;-74
2023/08/09 00:29:47;;;;;;;4.00;1.73;;;14.20;99.90;;;;;;4178706;28;20735;-75
2023/08/09 00:31:49;;;;;;;4.90;1.60;;;14.20;99.90;;;;;;4176408;28;20230;-75
2023/08/09 00:33:52;;;;;;;3.70;1.70;;;14.20;99.90;;;;;;4178951;28;20294;-75
2023/08/09 00:35:54;;;;;;;3.60;1.73;;;14.20;99.90;;;;;;4181302;28;20209;-75
2023/08/09 00:37:57;;;;;;;4.40;1.33;;;14.20;99.90;;;;;;4180605;28;20257;-76
2023/08/09 00:39:59;;;;;;;5.23;1.70;;;14.20;99.90;;;;;;4173412;28;20260;-75
2023/08/09 00:42:01;;;;;;;4.27;1.60;;;14.20;99.90;;;;;;4180743;28;20207;-75
2023/08/09 00:44:03;;;;;;;5.67;1.70;;;14.20;99.90;;;;;;4174428;28;20600;-75
2023/08/09 00:46:06;;;;;;;3.53;1.60;;;14.20;99.90;;;;;;4176009;28;20689;-74
2023/08/09 00:48:08;;;;;;;4.23;2.33;;;14.20;99.90;;;;;;4174817;28;20579;-75
2023/08/09 00:50:11;;;;;;;1.90;1.40;;;14.20;99.90;;;;;;4176961;28;20209;-75
2023/08/09 00:52:13;;;;;;;3.67;1.73;;;14.20;99.90;;;;;;4174533;28;20226;-75
2023/08/09 00:54:16;;;;;;;5.60;1.40;;;14.10;99.90;;;;;;4180379;28;20210;-75
2023/08/09 00:56:18;;;;;;;3.67;1.70;;;14.10;99.90;;;;;;4177032;28;20230;-75
2023/08/09 00:58:20;;;;;;;4.47;1.80;;;14.00;99.90;;;;;;4173518;28;20305;-75
2023/08/09 01:00:22;;;;;;;4.10;1.83;;;13.90;99.90;;;;;;4178224;28;20246;-75
2023/08/09 01:02:25;;;;;;;4.23;1.90;;;14.00;99.90;;;;;;4174245;28;20213;-74
2023/08/09 01:04:27;;;;;;;2.40;1.50;;;14.00;99.90;;;;;;4177956;28;20993;-75
2023/08/09 01:06:41;;;;;;;5.37;1.53;;;13.90;99.90;;;;;;4173219;28;20697;-75
2023/08/09 01:08:48;;;;;;;3.30;1.60;;;13.90;99.90;;;;;;4172112;28;20301;-75
2023/08/09 01:11:02;;;;;;;3.80;1.93;;;13.90;99.90;;;;;;4174343;28;20208;-75
2023/08/09 01:13:06;;;;;;;5.90;2.33;;;13.90;99.90;;;;;;4175030;28;20308;-74
2023/08/09 01:15:10;;;;;;;4.33;1.90;;;13.90;99.90;;;;;;4177296;28;20276;-74
2023/08/09 01:17:15;;;;;;;3.77;1.73;;;13.80;99.90;;;;;;4185914;28;20254;-75
2023/08/09 01:19:37;;;;;;;4.07;2.03;;;13.80;99.90;;;;;;4185792;28;20219;-75
2023/08/09 01:21:43;;;;;;;2.47;1.67;;;13.80;99.90;;;;;;4183421;28;20225;-75
2023/08/09 01:23:47;;;;;;;3.80;1.80;;;13.80;99.90;;;;;;4187510;28;20220;-75
2023/08/09 01:25:49;;;;;;;5.17;2.20;;;13.70;99.90;;;;;;4179150;28;20228;-75
2023/08/09 01:27:51;;;;;;;5.20;1.73;;;13.60;99.90;;;;;;4174483;28;20722;-73
2023/08/09 01:29:53;;;;;;;5.57;2.07;;;13.50;99.90;;;;;;4174108;28;20730;-73
2023/08/09 01:31:55;;;;;;;3.70;1.87;;;13.50;99.90;;;;;;4181264;28;20325;-73
2023/08/09 01:33:57;;;;;;;2.67;1.73;;;13.50;99.90;;;;;;4178207;28;20302;-73
2023/08/09 01:36:05;;;;;;;4.43;2.00;;;13.40;99.90;;;;;;4178889;28;20663;-73
2023/08/09 01:38:10;;;;;;;4.07;2.13;;;13.40;99.90;;;;;;4177511;28;20213;-73
2023/08/09 01:40:15;;;;;;;4.50;2.30;;;13.40;99.90;;;;;;4175585;28;20258;-73
2023/08/09 01:42:21;;;;;;;3.57;1.80;;;13.40;99.90;;;;;;4172804;28;20558;-72
2023/08/09 01:44:24;;;;;;;3.73;1.90;;;13.40;99.90;;;;;;4182073;28;20235;-73
2023/08/09 01:46:27;;;;;;;4.77;2.37;;;13.40;99.90;;;;;;4177639;28;20236;-73
2023/08/09 01:48:29;;;;;;;4.43;2.00;;;13.40;99.90;;;;;;4170837;28;20215;-73
2023/08/09 01:50:31;;;;;;;3.33;1.87;;;13.40;99.90;;;;;;4181441;28;20670;-74
2023/08/09 01:52:33;;;;;;;2.57;1.93;;;13.40;99.90;;;;;;4171559;28;20244;-74
2023/08/09 01:54:38;;;;;;;5.90;2.37;;;13.40;99.90;;;;;;4172243;28;20278;-74
2023/08/09 01:56:42;;;;;;;7.00;2.23;;;13.40;99.90;;;;;;4164072;28;20256;-72
2023/08/09 01:58:44;;;;;;;3.73;2.20;;;13.30;99.90;;;;;;4177511;28;20646;-73
2023/08/09 02:00:46;;;;;;;4.17;2.00;;;13.30;99.90;;;;;;4178651;28;20208;-73
2023/08/09 02:02:51;;;;;;;4.43;2.27;;;13.30;99.90;;;;;;4179436;28;20307;-73
2023/08/09 02:04:53;;;;;;;4.87;2.30;;;13.30;99.90;;;;;;4175084;28;20233;-73
2023/08/09 02:06:54;;;;;;;4.30;1.97;;;13.30;99.90;;;;;;4184389;28;20229;-73
2023/08/09 02:08:56;;;;;;;5.07;2.33;;;13.30;99.90;;;;;;4179991;28;20671;-73
2023/08/09 02:10:58;;;;;;;4.37;2.20;;;13.20;99.90;;;;;;4184500;28;20205;-73
2023/08/09 02:13:02;;;;;;;4.73;2.33;;;13.20;99.90;;;;;;4181012;28;20299;-73
2023/08/09 02:15:04;;;;;;;4.70;2.50;;;13.20;99.90;;;;;;4177982;28;20217;-73
2023/08/09 02:17:09;;;;;;;5.13;2.53;;;13.10;99.90;;;;;;4171922;28;20219;-74
2023/08/09 02:19:13;;;;;;;5.47;2.40;;;13.10;99.90;;;;;;4176731;28;20216;-74
2023/08/09 02:21:15;;;;;;;8.70;2.63;;;13.10;99.90;;;;;;4177860;28;20689;-74
2023/08/09 02:23:18;;;;;;;4.87;2.17;;;13.00;99.90;;;;;;4182250;28;20212;-74
2023/08/09 02:25:19;;;;;;;5.33;2.27;;;13.00;99.90;;;;;;4178422;28;20219;-74
2023/08/09 02:27:21;;;;;;;3.53;2.43;;;13.00;99.90;;;;;;4176430;28;20246;-74
2023/08/09 02:29:25;;;;;;;4.80;2.47;;;13.00;99.90;;;;;;4177445;28;20670;-76
2023/08/09 02:31:26;;;;;;;4.20;2.20;;;13.00;99.90;;;;;;4183163;28;20214;-76
2023/08/09 02:33:29;;;;;;;3.40;2.20;;;13.00;99.90;;;;;;4173070;28;20215;-76
2023/08/09 02:35:50;;;;;;;5.33;2.40;;;12.90;99.90;;;;;;4178744;28;20228;-76
2023/08/09 02:37:52;;;;;;;4.97;2.57;;;12.90;99.90;;;;;;4172490;28;20234;-76
2023/08/09 02:39:54;;;;;;;4.40;2.60;;;12.90;99.90;;;;;;4176555;28;20293;-76
2023/08/09 02:41:56;;;;;;;3.83;2.13;;;12.90;99.90;;;;;;4176473;28;20642;-76
2023/08/09 02:44:00;;;;;;;4.23;2.10;;;13.00;99.90;;;;;;4177045;28;20868;-76
2023/08/09 02:46:04;;;;;;;2.90;2.10;;;13.00;99.90;;;;;;4175730;28;20700;-75
2023/08/09 02:48:07;;;;;;;4.43;2.40;;;13.00;99.90;;;;;;4176414;28;20215;-75
2023/08/09 02:50:09;;;;;;;3.80;2.30;;;13.00;99.90;;;;;;4177404;28;20554;-75
2023/08/09 02:52:13;;;;;;;3.47;2.10;;;13.00;99.90;;;;;;4186569;28;20216;-75
2023/08/09 02:54:15;;;;;;;3.20;2.10;;;13.00;99.90;;;;;;4178794;28;20206;-76
2023/08/09 02:56:16;;;;;;;7.83;2.30;;;13.00;99.90;;;;;;4186286;28;20262;-75
2023/08/09 02:58:18;;;;;;;2.50;2.10;;;13.00;99.90;;;;;;4180628;28;20208;-75
2023/08/09 03:00:19;;;;;;;4.67;2.40;;;13.00;99.90;;;;;;4174804;28;20216;-75
2023/08/09 03:02:25;;;;;;;4.00;2.40;;;13.00;99.90;;;;;;4176247;28;20210;-76
2023/08/09 03:04:26;;;;;;;4.50;2.40;;;13.00;99.90;;;;;;4177671;28;20257;-76
2023/08/09 03:06:29;;;;;;;5.07;2.67;;;13.00;99.90;;;;;;4180899;28;20310;-76
2023/08/09 03:08:30;;;;;;;6.13;2.23;;;13.00;99.90;;;;;;4174289;28;20214;-76
2023/08/09 03:10:32;;;;;;;7.03;2.23;;;13.00;99.90;;;;;;4174850;28;20194;-76
2023/08/09 03:12:36;;;;;;;3.77;2.60;;;13.00;99.90;;;;;;4174658;28;20211;-76
2023/08/09 03:14:40;;;;;;;8.20;2.67;;;13.00;99.90;;;;;;4172540;28;20298;-76
2023/08/09 03:16:42;;;;;;;12.50;3.40;;;13.00;99.90;;;;;;4176339;28;20231;-75
2023/08/09 03:18:49;;;;;;;5.67;3.17;;;12.90;99.90;;;;;;4181159;28;20713;-75
2023/08/09 03:20:51;;;;;;;11.03;3.53;;;12.90;99.90;;;;;;4178756;28;20816;-75
2023/08/09 03:22:56;;;;;;;6.03;3.10;;;12.90;99.90;;;;;;4174800;28;20660;-74
2023/08/09 03:24:58;;;;;;;5.43;3.03;;;12.80;99.90;;;;;;4174748;28;20699;-75
2023/08/09 03:27:02;;;;;;;7.77;3.77;;;12.80;99.90;;;;;;4181518;28;20688;-75
2023/08/09 03:29:04;;;;;;;7.70;3.43;;;12.80;99.90;;;;;;4176583;28;20211;-74
2023/08/09 03:31:06;;;;;;;9.60;3.13;;;12.80;99.90;;;;;;4174332;28;20270;-74
2023/08/09 03:33:10;;;;;;;7.10;3.50;;;12.70;99.90;;;;;;4181828;28;20210;-73
2023/08/09 03:35:14;;;;;;;5.47;3.30;;;12.70;99.90;;;;;;4180833;28;20269;-74
2023/08/09 03:37:17;;;;;;;4.97;3.47;;;12.70;99.90;;;;;;4186086;28;20309;-74
2023/08/09 03:39:19;;;;;;;7.43;3.80;;;12.70;99.90;;;;;;4189988;28;20283;-74
2023/08/09 03:41:21;;;;;;;9.70;3.97;;;12.80;99.90;;;;;;4184261;28;20210;-74
2023/08/09 03:43:25;;;;;;;7.77;4.33;;;12.70;99.90;;;;;;4181929;28;20206;-74
2023/08/09 03:45:27;;;;;;;7.77;3.70;;;12.70;99.90;;;;;;4174982;28;20321;-74
2023/08/09 03:47:29;;;;;;;7.83;4.47;;;12.70;99.90;;;;;;4172362;28;20234;-73
2023/08/09 03:49:31;;;;;;;5.23;3.67;;;12.60;99.90;;;;;;4179989;28;20211;-74
2023/08/09 03:51:34;;;;;;;10.87;5.43;;;12.70;99.90;;;;;;4177677;28;20238;-73
2023/08/09 03:53:36;;;;;;;10.20;5.33;;;12.60;99.90;;;;;;4175926;28;20203;-73
2023/08/09 03:55:38;;;;;;;10.27;4.70;;;12.70;99.90;;;;;;4170053;28;20228;-73
2023/08/09 03:57:44;;;;;;;8.13;4.57;;;12.70;99.90;;;;;;4175120;28;20329;-74
2023/08/09 03:59:49;;;;;;;9.80;4.53;;;12.70;99.90;;;;;;4186790;28;20214;-74
2023/08/09 04:01:51;;;;;;;6.47;4.27;;;12.70;99.90;;;;;;4178283;28;20669;-75
2023/08/09 04:03:53;;;;;;;6.67;4.30;;;12.70;99.90;;;;;;4177105;28;20210;-74
2023/08/09 04:05:55;;;;;;;4.83;3.83;;;12.70;99.90;;;;;;4178322;28;20702;-74
2023/08/09 04:08:01;;;;;;;7.90;4.63;;;12.70;99.90;;;;;;4180110;28;20214;-75
2023/08/09 04:10:05;;;;;;;7.70;5.10;;;12.70;99.90;;;;;;4182906;28;20217;-74
2023/08/09 04:12:08;;;;;;;9.90;4.60;;;12.70;99.90;;;;;;4175833;28;20218;-74
2023/08/09 04:14:10;;;;;;;14.80;5.87;;;12.70;99.90;;;;;;4171278;28;20229;-74
2023/08/09 04:16:12;;;;;;;10.37;5.50;;;12.70;99.90;;;;;;4178417;28;20222;-74
2023/08/09 04:18:14;;;;;;;8.00;5.00;;;12.60;99.90;;;;;;4178781;28;20214;-74
2023/08/09 04:20:17;;;;;;;10.23;5.73;;;12.60;99.90;;;;;;4170419;28;20229;-74
2023/08/09 04:22:19;;;;;;;12.10;6.23;;;12.70;99.90;;;;;;4180245;28;20218;-74
2023/08/09 04:24:22;;;;;;;10.30;6.10;;;12.60;99.90;;;;;;4176257;28;20681;-74
2023/08/09 04:26:24;;;;;;;9.60;4.73;;;12.60;99.90;;;;;;4173119;28;20264;-75
2023/08/09 04:28:25;;;;;;;6.50;3.97;;;12.60;99.90;;;;;;4173891;28;20295;-75
2023/08/09 04:30:27;;;;;;;6.80;4.07;;;12.60;99.90;;;;;;4179049;28;20214;-74
2023/08/09 04:32:29;;;;;;;5.57;3.87;;;12.60;99.90;;;;;;4172985;28;20266;-74
2023/08/09 04:34:31;;;;;;;10.43;5.00;;;12.60;99.90;;;;;;4178633;28;20299;-74
2023/08/09 04:36:32;;;;;;;7.67;4.97;;;12.60;99.90;;;;;;4175187;28;20364;-74
2023/08/09 04:38:33;;;;;;;5.73;4.10;;;12.70;99.90;;;;;;4173206;28;20296;-74
2023/08/09 04:40:37;;;;;;;6.47;4.47;;;12.70;99.90;;;;;;4178903;28;20233;-74
2023/08/09 04:42:40;;;;;;;7.10;4.53;;;12.60;99.90;;;;;;4181138;28;20267;-74
2023/08/09 04:44:43;;;;;;;7.40;4.20;;;12.70;99.90;;;;;;4175686;28;20214;-74
2023/08/09 04:46:45;;;;;;;5.30;3.63;;;12.60;99.90;;;;;;4175646;28;20317;-73
2023/08/09 04:48:47;;;;;;;4.57;3.80;;;12.70;99.90;;;;;;4176356;28;20209;-74
2023/08/09 04:50:49;;;;;;;8.77;4.70;;;12.70;99.90;;;;;;4179072;28;20584;-73
2023/08/09 04:52:51;;;;;;;7.17;4.67;;;12.70;99.90;;;;;;4173291;28;20673;-74
2023/08/09 04:54:54;;;;;;;11.23;5.63;;;12.70;99.90;;;;;;4192150;22;20249;-81
2023/08/09 04:56:57;;;;;;;10.50;5.37;;;12.70;99.90;;;;;;4174893;28;21239;-81
2023/08/09 04:58:59;;;;;;;7.87;5.27;;;12.80;99.90;;;;;;4174304;28;20238;-81
2023/08/09 05:01:01;;;;;;;10.70;5.97;;;12.80;99.90;;;;;;4176548;28;20496;-80
2023/08/09 05:03:04;;;;;;;7.30;4.87;;;12.70;99.90;;;;;;4176700;28;20214;-80
2023/08/09 05:05:07;;;;;;;9.77;5.40;;;12.80;99.90;;;;;;4177248;28;20226;-81
2023/08/09 05:07:09;;;;;;;9.80;5.67;;;12.80;99.90;;;;;;4173082;28;20203;-80
2023/08/09 05:09:11;;;;;;;9.50;5.90;;;12.80;99.90;;;;;;4170623;28;20735;-80
2023/08/09 05:11:12;;;;;;;8.93;5.80;;;12.80;99.90;;;;;;4173583;28;20211;-80
2023/08/09 05:13:16;;;;;;;7.90;5.37;;;12.80;99.90;;;;;;4175644;28;20697;-80
2023/08/09 05:15:18;;;;;;;11.33;5.90;;;12.80;99.90;;;;;;4172361;28;20674;-80
2023/08/09 05:17:20;;;;;;;7.30;5.13;;;12.80;99.90;;;;;;4174342;28;20241;-80
2023/08/09 05:19:22;;;;;;;8.07;4.97;;;12.80;99.90;;;;;;4173961;28;20213;-79
2023/08/09 05:21:24;;;;;;;12.83;7.13;;;12.80;99.90;;;;;;4171872;28;20216;-80
2023/08/09 05:23:25;;;;;;;16.50;9.87;;;12.80;99.90;;;;;;4171692;28;20770;-80
2023/08/09 05:25:27;;;;;;;12.57;7.70;;;12.80;99.90;;;;;;4169304;28;20884;-79
2023/08/09 05:27:29;;;;;;;10.43;6.90;;;12.80;99.90;;;;;;4174558;28;20276;-79
2023/08/09 05:29:33;;;;;;;11.90;6.83;;;12.90;99.90;;;;;;4172451;28;20242;-79
2023/08/09 05:31:35;;;;;;;8.07;5.70;;;12.90;99.90;;;;;;4168349;28;20198;-79
2023/08/09 05:33:37;;;;;;;8.87;4.93;;;12.90;99.90;;;;;;4170078;28;20211;-79
2023/08/09 05:35:38;;;;;;;8.87;5.90;;;13.00;99.90;;;;;;4175176;28;21188;-78
2023/08/09 05:37:41;;;;;;;9.47;5.87;;;13.00;99.90;;;;;;4178335;28;20640;-79
2023/08/09 05:39:43;;;;;;;7.93;6.13;;;13.10;99.90;;;;;;4179802;28;20305;-79
2023/08/09 05:41:44;;;;;;;9.50;5.90;;;13.10;99.90;;;;;;4179841;28;20565;-79
2023/08/09 05:43:46;;;;;;;10.83;5.83;;;13.20;99.90;;;;;;4179153;28;20234;-79
2023/08/09 05:45:50;;;;;;;10.77;6.33;;;13.20;99.90;;;;;;4170932;28;20234;-79
2023/08/09 05:47:51;;;;;;;12.97;6.47;;;13.30;99.90;;;;;;4173463;28;20227;-79
2023/08/09 05:49:54;;;;;;;9.10;6.00;;;13.30;99.90;;;;;;4175089;28;20249;-78
2023/08/09 05:51:56;;;;;;;9.60;6.20;;;13.40;99.90;;;;;;4174221;28;20205;-79
2023/08/09 05:53:58;;;;;;;9.00;5.53;;;13.30;99.90;;;;;;4175536;28;20234;-79
2023/08/09 05:56:00;;;;;;;7.97;5.90;;;13.40;99.90;;;;;;4172988;28;20278;-79
2023/08/09 05:58:01;;;;;;;9.50;6.20;;;13.40;99.90;;;;;;4177253;28;20225;-79
2023/08/09 06:00:05;;;;;;;9.83;6.33;;;13.50;99.90;;;;;;4176016;28;20210;-79
2023/08/09 06:02:08;;;;;;;6.47;4.90;;;13.50;99.90;;;;;;4172638;28;20211;-79
2023/08/09 06:04:10;;;;;;;8.37;5.00;;;13.40;99.90;;;;;;4171959;28;20215;-79
2023/08/09 06:06:12;;;;;;;12.40;5.83;;;13.50;99.90;;;;;;4172248;28;20243;-79
2023/08/09 06:08:14;;;;;;;7.93;5.40;;;13.50;99.90;;;;;;4173182;28;20243;-79
2023/08/09 06:10:16;;;;;;;8.40;5.17;;;13.40;99.90;;;;;;4173014;28;20218;-79
2023/08/09 06:12:17;;;;;;;7.60;4.47;;;13.40;99.90;;;;;;4171990;28;20211;-79
2023/08/09 06:14:19;;;;;;;8.80;4.73;;;13.30;99.90;;;;;;4177009;28;20226;-78
2023/08/09 06:16:21;;;;;;;6.67;4.20;;;13.30;99.90;;;;;;4175366;28;20299;-78
2023/08/09 06:18:25;;;;;;;7.60;4.07;;;13.30;99.90;;;;;;4175600;28;20241;-78
2023/08/09 06:20:27;;;;;;;7.33;4.00;;;13.30;99.90;;;;;;4172608;28;20238;-78
2023/08/09 06:22:29;;;;;;;7.00;4.10;;;13.20;99.90;;;;;;4174786;28;20253;-79
2023/08/09 06:24:31;;;;;;;6.67;3.90;;;13.20;99.90;;;;;;4173249;28;20653;-78
2023/08/09 06:26:35;;;;;;;5.00;3.20;;;13.20;99.90;;;;;;4177007;28;20313;-78
2023/08/09 06:28:39;;;;;;;4.80;2.70;;;13.10;99.90;;;;;;4171672;28;20211;-79
2023/08/09 06:30:41;;;;;;;6.17;2.50;;;13.00;99.90;;;;;;4173679;28;20203;-78
2023/08/09 06:32:42;;;;;;;4.03;2.40;;;12.90;99.90;;;;;;4170121;28;20313;-78
2023/08/09 06:34:45;;;;;;;7.50;2.53;;;12.80;99.90;;;;;;4172812;28;20770;-79
2023/08/09 06:36:47;;;;;;;5.43;3.37;;;12.80;99.90;;;;;;4175856;28;20195;-78
2023/08/09 06:38:49;;;;;;;5.50;2.97;;;12.70;99.90;;;;;;4176983;28;20218;-78
2023/08/09 06:40:51;;;;;;;4.00;2.80;;;12.60;99.90;;;;;;4174163;28;20211;-78
2023/08/09 06:42:53;;;;;;;5.70;3.17;;;12.60;99.90;;;;;;4178060;28;20234;-79
2023/08/09 06:44:55;;;;;;;8.17;3.20;;;12.60;99.90;;;;;;4174539;28;20317;-79
2023/08/09 06:46:56;;;;;;;4.93;3.10;;;12.60;99.90;;;;;;4175710;28;21129;-79
2023/08/09 06:48:59;;;;;;;5.97;3.30;;;12.60;99.90;;;;;;4173907;28;20301;-78
2023/08/09 06:51:02;;;;;;;4.73;2.90;;;12.60;99.90;;;;;;4174510;28;20288;-79
2023/08/09 06:53:04;;;;;;;5.40;3.10;;;12.60;99.90;;;;;;4174419;28;20583;-79
2023/08/09 06:55:08;;;;;;;4.67;3.03;;;12.60;99.90;;;;;;4177378;28;20294;-79
2023/08/09 06:57:10;;;;;;;5.97;3.43;;;12.70;99.90;;;;;;4174488;28;20238;-79
2023/08/09 06:59:12;;;;;;;7.07;3.10;;;12.70;99.90;;;;;;4175249;28;20238;-78
2023/08/09 07:01:14;;;;;;;5.30;2.50;;;12.70;99.90;;;;;;4173663;28;20221;-79
2023/08/09 07:03:16;;;;;;;8.87;2.70;;;12.90;99.90;;;;;;4175240;28;20299;-79
2023/08/09 07:05:20;;;;;;;6.70;2.50;;;12.80;99.90;;;;;;4171010;28;21231;-78
2023/08/09 07:07:25;;;;;;;3.93;2.60;;;12.70;99.90;;;;;;4172744;28;20658;-79
2023/08/09 07:09:27;;;;;;;4.30;2.63;;;12.70;99.90;;;;;;4170116;28;20243;-79
2023/08/09 07:11:29;;;;;;;2.90;2.43;;;12.70;99.90;;;;;;4172415;28;20251;-79
2023/08/09 07:13:31;;;;;;;4.20;2.80;;;12.80;99.90;;;;;;4174776;28;20212;-78
2023/08/09 07:15:32;;;;;;;5.03;3.07;;;12.80;99.90;;;;;;4173279;28;20318;-79
2023/08/09 07:17:34;;;;;;;5.87;3.33;;;12.90;99.90;;;;;;4172415;28;20214;-79
2023/08/09 07:19:36;;;;;;;6.07;3.00;;;12.90;99.90;;;;;;4175384;28;20709;-78
2023/08/09 07:21:38;;;;;;;7.47;3.30;;;12.80;99.90;;;;;;4180123;28;20298;-79
2023/08/09 07:23:41;;;;;;;4.10;3.00;;;12.90;99.90;;;;;;4177745;28;20212;-79
2023/08/09 07:25:43;;;;;;;8.97;3.30;;;12.90;99.90;;;;;;4174641;28;20322;-79
2023/08/09 07:27:46;;;;;;;11.17;3.37;;;12.90;99.90;;;;;;4176393;28;20600;-79
2023/08/09 07:29:48;;;;;;;9.90;4.63;;;12.90;99.90;;;;;;4170959;28;20650;-78
2023/08/09 07:31:50;;;;;;;7.77;3.07;;;13.00;99.90;;;;;;4170768;28;20213;-79
2023/08/09 07:33:52;;;;;;;9.93;2.80;;;13.10;99.90;;;;;;4171914;28;20299;-79
2023/08/09 07:35:55;;;;;;;6.33;2.57;;;13.10;99.90;;;;;;4171040;28;20230;-79
2023/08/09 07:37:57;;;;;;;7.50;2.70;;;13.10;99.90;;;;;;4172242;28;20590;-79
2023/08/09 07:39:59;;;;;;;5.27;2.33;;;13.10;99.90;;;;;;4171557;28;20677;-79
2023/08/09 07:42:01;;;;;;;5.83;2.60;;;13.10;99.90;;;;;;4173850;28;20206;-78
2023/08/09 07:44:03;;;;;;;5.10;2.47;;;13.20;99.90;;;;;;4174747;28;20214;-79
2023/08/09 07:46:06;;;;;;;4.13;2.60;;;13.30;99.90;;;;;;4180658;28;20314;-78
2023/08/09 07:48:08;;;;;;;7.20;2.60;;;13.40;99.90;;;;;;4180488;28;20223;-79
2023/08/09 07:50:10;;;;;;;4.23;2.30;;;13.40;99.90;;;;;;4181200;28;20236;-78
2023/08/09 07:52:12;;;;;;;6.77;2.40;;;13.50;99.90;;;;;;4179999;28;20236;-78
2023/08/09 07:54:14;;;;;;;7.17;2.30;;;13.50;99.90;;;;;;4172714;28;20325;-78
2023/08/09 07:56:17;;;;;;;4.40;2.00;;;13.60;99.90;;;;;;4173054;28;20247;-78
2023/08/09 07:58:19;;;;;;;22.87;5.33;;;13.60;99.90;;;;;;4174784;28;20238;-78
2023/08/09 08:00:22;;;;;;;10.53;3.53;;;13.60;99.90;;;;;;4170790;28;20245;-78
2023/08/09 08:02:23;;;;;;;14.87;3.47;;;13.70;99.90;;;;;;4168391;28;20204;-78
2023/08/09 08:04:24;;;;;;;7.80;2.87;;;13.70;99.90;;;;;;4174312;28;20230;-78
2023/08/09 08:06:27;;;;;;;5.77;2.50;;;13.80;99.90;;;;;;4173073;28;20281;-78
2023/08/09 08:08:29;;;;;;;5.87;2.00;;;13.80;99.90;;;;;;4175033;28;20693;-78
2023/08/09 08:10:32;;;;;;;3.63;1.70;;;13.80;99.90;;;;;;4170307;28;20211;-78
2023/08/09 08:12:35;;;;;;;3.60;1.80;;;13.70;99.90;;;;;;4175540;28;20227;-77
2023/08/09 08:14:38;;;;;;;6.60;2.60;;;13.70;99.90;;;;;;4169440;28;20257;-78
2023/08/09 08:16:40;;;;;;;6.73;2.03;;;13.60;99.90;;;;;;4174734;28;20245;-79
2023/08/09 08:18:42;;;;;;;7.13;2.50;;;13.80;99.90;;;;;;4174324;28;20242;-78
2023/08/09 08:20:44;;;;;;;3.13;2.07;;;13.80;99.90;;;;;;4169086;28;20305;-78
2023/08/09 08:22:47;;;;;;;4.20;1.70;;;13.80;99.90;;;;;;4167491;28;20325;-78
2023/08/09 08:24:49;;;;;;;3.10;1.70;;;13.70;99.90;;;;;;4174354;28;20674;-77
2023/08/09 08:26:53;;;;;;;3.77;2.07;;;13.80;99.90;;;;;;4171715;28;20242;-78
2023/08/09 08:28:56;;;;;;;5.93;1.77;;;13.80;99.90;;;;;;4171507;28;20211;-77
2023/08/09 08:30:59;;;;;;;5.77;1.60;;;13.90;99.90;;;;;;4175288;28;20202;-79
2023/08/09 08:33:00;;;;;;;2.77;1.57;;;14.00;99.90;;;;;;4167953;28;20215;-77
2023/08/09 08:35:02;;;;;;;3.40;1.60;;;14.00;99.90;;;;;;4171343;28;20227;-77
2023/08/09 08:37:04;;;;;;;8.43;1.93;;;14.10;99.90;;;;;;4166162;28;20207;-77
2023/08/09 08:39:14;;;;;;;3.50;1.83;;;14.20;99.90;;;;;;4169611;28;20230;-77
2023/08/09 08:41:16;;;;;;;6.87;1.77;;;14.30;99.90;;;;;;4171182;28;20224;-77
2023/08/09 08:43:19;;;;;;;4.43;2.07;;;14.40;99.90;;;;;;4168101;28;20712;-77
2023/08/09 08:45:24;;;;;;;4.93;1.40;;;14.40;99.90;;;;;;4170706;28;20258;-77
2023/08/09 08:47:26;;;;;;;5.97;1.80;;;14.40;99.90;;;;;;4173783;28;20285;-76
2023/08/09 08:49:33;;;;;;;3.80;1.40;;;14.30;99.90;;;;;;4168762;28;20721;-77
2023/08/09 08:51:37;;;;;;;3.20;1.53;;;14.30;99.90;;;;;;4172479;28;20230;-78
2023/08/09 08:53:39;;;;;;;5.27;1.87;;;14.30;99.90;;;;;;4173543;28;20311;-78
2023/08/09 08:55:42;;;;;;;7.10;1.60;;;14.30;99.90;;;;;;4173289;28;20234;-79
2023/08/09 08:57:46;;;;;;;6.57;2.10;;;14.40;99.90;;;;;;4170564;28;20591;-77
2023/08/09 08:59:47;;;;;;;6.27;2.13;;;14.40;99.90;;;;;;4170082;28;20310;-78
2023/08/09 09:01:51;;;;;;;3.57;1.50;;;14.50;99.90;;;;;;4170942;28;20231;-77
2023/08/09 09:03:52;;;;;;;4.13;1.80;;;14.50;99.90;;;;;;4172565;28;20310;-79
2023/08/09 09:05:54;;;;;;;4.10;1.77;;;14.50;99.90;;;;;;4171116;28;20730;-78
2023/08/09 09:07:57;;;;;;;4.67;1.50;;;14.60;99.90;;;;;;4172358;28;20280;-77
2023/08/09 09:10:00;;;;;;;5.77;2.53;;;14.50;99.90;;;;;;4171321;28;20202;-78
2023/08/09 09:12:02;;;;;;;3.90;1.30;;;14.50;99.90;;;;;;4166692;28;20253;-77
2023/08/09 09:14:11;;;;;;;2.23;1.43;;;14.50;99.90;;;;;;4173314;28;20214;-79
2023/08/09 09:16:13;;;;;;;2.23;1.40;;;14.40;99.90;;;;;;4175439;28;20234;-78
2023/08/09 09:18:16;;;;;;;3.37;1.70;;;14.30;99.90;;;;;;4170338;28;20302;-77
2023/08/09 09:20:23;;;;;;;2.37;1.13;;;14.30;99.90;;;;;;4169359;28;20207;-76
2023/08/09 09:22:29;;;;;;;2.77;1.13;;;14.40;99.90;;;;;;4170931;28;20244;-78
2023/08/09 09:24:35;;;;;;;2.17;1.30;;;14.50;99.90;;;;;;4170149;28;20329;-76
2023/08/09 09:26:38;;;;;;;3.67;1.87;;;14.60;99.90;;;;;;4166856;28;20262;-77
2023/08/09 09:28:41;;;;;;;6.03;1.30;;;14.70;99.90;;;;;;4166282;28;20593;-76
2023/08/09 09:30:57;;;;;;;3.83;1.10;;;14.80;99.90;;;;;;4169681;28;20294;-76
2023/08/09 09:33:02;;;;;;;2.53;1.03;;;15.00;99.90;;;;;;4170608;28;20198;-77
2023/08/09 09:35:08;;;;;;;3.53;1.03;;;15.00;99.90;;;;;;4169725;28;20230;-77
2023/08/09 09:37:10;;;;;;;2.10;1.00;;;15.10;99.90;;;;;;4169182;28;20215;-76
2023/08/09 09:39:13;;;;;;;2.70;1.10;;;15.10;99.90;;;;;;4171836;28;20573;-77
2023/08/09 09:41:18;;;;;;;2.60;1.00;;;15.20;99.90;;;;;;4170696;28;20218;-77
2023/08/09 09:43:19;;;;;;;2.80;0.97;;;15.30;99.90;;;;;;4169831;28;20929;-77
2023/08/09 09:45:23;;;;;;;1.43;0.80;;;15.40;99.90;;;;;;4169116;28;20226;-77
2023/08/09 09:47:26;;;;;;;3.07;1.10;;;15.40;99.90;;;;;;4173652;28;20245;-77
2023/08/09 09:49:28;;;;;;;4.23;1.07;;;15.30;99.90;;;;;;4170035;28;20219;-78
2023/08/09 09:51:32;;;;;;;2.83;0.90;;;15.40;99.90;;;;;;4170855;28;20297;-77
2023/08/09 09:53:36;;;;;;;3.70;1.17;;;15.50;99.90;;;;;;4169682;28;20209;-77
2023/08/09 09:55:38;;;;;;;2.97;1.00;;;15.50;99.90;;;;;;4171368;28;20248;-77
2023/08/09 09:57:40;;;;;;;3.00;1.30;;;15.50;99.90;;;;;;4168962;28;20204;-77
2023/08/09 09:59:42;;;;;;;2.50;0.90;;;15.50;99.90;;;;;;4169139;28;20212;-78
2023/08/09 10:01:47;;;;;;;2.57;0.97;;;15.50;99.90;;;;;;4173712;28;20235;-77
2023/08/09 10:03:50;;;;;;;3.20;1.40;;;15.50;99.90;;;;;;4164807;28;20215;-78
2023/08/09 10:05:54;;;;;;;3.83;1.23;;;15.50;99.90;;;;;;4167264;28;20267;-77
2023/08/09 10:07:58;;;;;;;4.97;1.70;;;15.60;99.90;;;;;;4174695;28;20233;-78
2023/08/09 10:10:03;;;;;;;6.33;0.90;;;15.70;99.90;;;;;;4171451;28;20238;-77
2023/08/09 10:12:09;;;;;;;2.37;1.00;;;15.80;99.90;;;;;;4170904;28;20220;-77
2023/08/09 10:14:13;;;;;;;1.67;0.90;;;15.80;99.90;;;;;;4174060;28;20270;-77
2023/08/09 10:16:17;;;;;;;3.23;1.20;;;15.80;99.90;;;;;;4167925;28;20264;-78
2023/08/09 10:18:25;;;;;;;8.10;1.00;;;15.80;99.90;;;;;;4174753;28;20212;-76
2023/08/09 10:20:27;;;;;;;5.37;1.20;;;15.80;99.90;;;;;;4168464;28;20254;-77
2023/08/09 10:22:29;;;;;;;2.47;0.90;;;16.00;99.90;;;;;;4168838;28;20401;-77
2023/08/09 10:24:33;;;;;;;2.93;1.00;;;16.20;99.90;;;;;;4173795;28;20717;-77
2023/08/09 10:26:39;;;;;;;4.43;1.07;;;16.40;99.90;;;;;;4170967;28;20296;-77
2023/08/09 10:28:48;;;;;;;2.77;0.90;;;16.50;99.90;;;;;;4170966;28;20721;-77
2023/08/09 10:30:51;;;;;;;5.37;1.00;;;16.50;99.90;;;;;;4174406;28;20282;-76
2023/08/09 10:32:55;;;;;;;3.33;1.23;;;16.50;99.90;;;;;;4175761;28;20210;-77
2023/08/09 10:34:58;;;;;;;1.47;0.80;;;16.60;99.90;;;;;;4175286;28;20232;-77
2023/08/09 10:37:01;;;;;;;1.37;0.70;;;16.60;99.90;;;;;;4180820;28;20221;-77
2023/08/09 10:39:08;;;;;;;2.27;0.90;;;16.60;99.90;;;;;;4174430;28;20227;-77